sensor_id;sensor_type;location;lat;lon;timestamp;P1;durP1;ratioP1;P2;durP2;ratioP2
69970;SDS011;57301;50.328;8.542;2024-03-02T00:01:26;10.80;;;6.90;;
69970;SDS011;57301;50.328;8.542;2024-03-02T00:03:52;11.82;;;6.85;;
69970;SDS011;57301;50.328;8.542;2024-03-02T00:06:20;11.50;;;6.75;;
69970;SDS011;57301;50.328;8.542;2024-03-02T00:08:48;12.40;;;7.43;;
69970;SDS011;57301;50.328;8.542;2024-03-02T00:11:14;14.43;;;7.78;;
69970;SDS011;57301;50.328;8.542;2024-03-02T00:13:42;13.60;;;7.27;;
69970;SDS011;57301;50.328;8.542;2024-03-02T00:16:08;11.65;;;6.97;;
69970;SDS011;57301;50.328;8.542;2024-03-02T00:18:35;12.68;;;7.25;;
69970;SDS011;57301;50.328;8.542;2024-03-02T00:21:03;13.73;;;7.60;;
69970;SDS011;57301;50.328;8.542;2024-03-02T00:23:32;11.30;;;6.47;;
69970;SDS011;57301;50.328;8.542;2024-03-02T00:26:01;10.97;;;6.97;;
69970;SDS011;57301;50.328;8.542;2024-03-02T00:28:34;10.65;;;6.80;;
69970;SDS011;57301;50.328;8.542;2024-03-02T00:31:09;11.73;;;7.13;;
69970;SDS011;57301;50.328;8.542;2024-03-02T00:33:41;14.23;;;7.20;;
69970;SDS011;57301;50.328;8.542;2024-03-02T00:36:10;12.13;;;7.28;;
69970;SDS011;57301;50.328;8.542;2024-03-02T00:38:45;14.50;;;7.57;;
69970;SDS011;57301;50.328;8.542;2024-03-02T00:41:17;16.10;;;9.07;;
69970;SDS011;57301;50.328;8.542;2024-03-02T00:46:42;14.45;;;8.05;;
69970;SDS011;57301;50.328;8.542;2024-03-02T00:51:48;15.27;;;8.13;;
69970;SDS011;57301;50.328;8.542;2024-03-02T00:54:20;12.98;;;7.47;;
69970;SDS011;57301;50.328;8.542;2024-03-02T00:56:50;13.57;;;7.57;;
69970;SDS011;57301;50.328;8.542;2024-03-02T00:59:17;14.00;;;7.45;;
69970;SDS011;57301;50.328;8.542;2024-03-02T01:01:43;12.73;;;7.57;;
69970;SDS011;57301;50.328;8.542;2024-03-02T01:04:10;13.77;;;7.80;;
69970;SDS011;57301;50.328;8.542;2024-03-02T01:06:37;13.23;;;7.45;;
69970;SDS011;57301;50.328;8.542;2024-03-02T01:09:03;15.35;;;8.57;;
69970;SDS011;57301;50.328;8.542;2024-03-02T01:11:30;13.82;;;8.20;;
69970;SDS011;57301;50.328;8.542;2024-03-02T01:13:56;15.60;;;8.70;;
69970;SDS011;57301;50.328;8.542;2024-03-02T01:16:23;15.17;;;8.60;;
69970;SDS011;57301;50.328;8.542;2024-03-02T01:18:50;14.02;;;8.88;;
69970;SDS011;57301;50.328;8.542;2024-03-02T01:21:17;17.02;;;9.48;;
69970;SDS011;57301;50.328;8.542;2024-03-02T01:23:43;25.83;;;12.60;;
69970;SDS011;57301;50.328;8.542;2024-03-02T01:26:10;24.17;;;12.68;;
69970;SDS011;57301;50.328;8.542;2024-03-02T01:28:36;21.60;;;10.93;;
69970;SDS011;57301;50.328;8.542;2024-03-02T01:31:03;19.05;;;9.35;;
69970;SDS011;57301;50.328;8.542;2024-03-02T01:33:30;18.30;;;9.30;;
69970;SDS011;57301;50.328;8.542;2024-03-02T01:35:56;14.60;;;8.85;;
69970;SDS011;57301;50.328;8.542;2024-03-02T01:38:23;16.00;;;8.85;;
69970;SDS011;57301;50.328;8.542;2024-03-02T01:40:49;17.00;;;9.37;;
69970;SDS011;57301;50.328;8.542;2024-03-02T01:43:16;17.42;;;9.52;;
69970;SDS011;57301;50.328;8.542;2024-03-02T01:45:43;15.63;;;9.20;;
69970;SDS011;57301;50.328;8.542;2024-03-02T01:48:09;19.63;;;10.32;;
69970;SDS011;57301;50.328;8.542;2024-03-02T01:50:36;19.05;;;9.57;;
69970;SDS011;57301;50.328;8.542;2024-03-02T01:53:03;18.63;;;8.97;;
69970;SDS011;57301;50.328;8.542;2024-03-02T01:55:29;18.25;;;9.52;;
69970;SDS011;57301;50.328;8.542;2024-03-02T01:57:57;20.13;;;9.48;;
69970;SDS011;57301;50.328;8.542;2024-03-02T02:00:24;16.50;;;8.68;;
69970;SDS011;57301;50.328;8.542;2024-03-02T02:02:53;15.43;;;8.57;;
69970;SDS011;57301;50.328;8.542;2024-03-02T02:05:20;17.03;;;9.40;;
69970;SDS011;57301;50.328;8.542;2024-03-02T02:07:47;17.50;;;8.95;;
69970;SDS011;57301;50.328;8.542;2024-03-02T02:10:13;18.52;;;8.95;;
69970;SDS011;57301;50.328;8.542;2024-03-02T02:12:40;17.52;;;8.93;;
69970;SDS011;57301;50.328;8.542;2024-03-02T02:17:49;14.23;;;7.63;;
69970;SDS011;57301;50.328;8.542;2024-03-02T02:20:16;16.25;;;8.93;;
69970;SDS011;57301;50.328;8.542;2024-03-02T02:22:58;16.83;;;8.88;;
69970;SDS011;57301;50.328;8.542;2024-03-02T02:25:26;18.60;;;9.00;;
69970;SDS011;57301;50.328;8.542;2024-03-02T02:27:54;17.90;;;9.18;;
69970;SDS011;57301;50.328;8.542;2024-03-02T02:30:23;17.03;;;8.27;;
69970;SDS011;57301;50.328;8.542;2024-03-02T02:32:52;19.45;;;8.85;;
69970;SDS011;57301;50.328;8.542;2024-03-02T02:35:19;14.45;;;8.35;;
69970;SDS011;57301;50.328;8.542;2024-03-02T02:37:45;16.40;;;8.18;;
69970;SDS011;57301;50.328;8.542;2024-03-02T02:40:13;17.98;;;8.45;;
69970;SDS011;57301;50.328;8.542;2024-03-02T02:42:40;15.77;;;8.67;;
69970;SDS011;57301;50.328;8.542;2024-03-02T02:45:06;19.17;;;9.60;;
69970;SDS011;57301;50.328;8.542;2024-03-02T02:47:33;17.17;;;9.00;;
69970;SDS011;57301;50.328;8.542;2024-03-02T02:50:02;16.25;;;8.68;;
69970;SDS011;57301;50.328;8.542;2024-03-02T02:52:31;17.50;;;9.20;;
69970;SDS011;57301;50.328;8.542;2024-03-02T02:54:59;17.10;;;8.87;;
69970;SDS011;57301;50.328;8.542;2024-03-02T02:57:25;16.30;;;9.05;;
69970;SDS011;57301;50.328;8.542;2024-03-02T02:59:52;17.92;;;9.18;;
69970;SDS011;57301;50.328;8.542;2024-03-02T03:02:18;16.73;;;8.65;;
69970;SDS011;57301;50.328;8.542;2024-03-02T03:04:45;16.73;;;8.55;;
69970;SDS011;57301;50.328;8.542;2024-03-02T03:07:11;17.10;;;9.40;;
69970;SDS011;57301;50.328;8.542;2024-03-02T03:09:38;20.25;;;10.32;;
69970;SDS011;57301;50.328;8.542;2024-03-02T03:12:07;18.98;;;9.30;;
69970;SDS011;57301;50.328;8.542;2024-03-02T03:14:34;18.15;;;7.93;;
69970;SDS011;57301;50.328;8.542;2024-03-02T03:17:00;16.77;;;8.93;;
69970;SDS011;57301;50.328;8.542;2024-03-02T03:19:27;14.43;;;7.83;;
69970;SDS011;57301;50.328;8.542;2024-03-02T03:21:54;15.48;;;8.38;;
69970;SDS011;57301;50.328;8.542;2024-03-02T03:24:20;16.25;;;8.20;;
69970;SDS011;57301;50.328;8.542;2024-03-02T03:26:47;17.00;;;8.45;;
69970;SDS011;57301;50.328;8.542;2024-03-02T03:29:13;16.23;;;8.82;;
69970;SDS011;57301;50.328;8.542;2024-03-02T03:31:40;17.50;;;9.27;;
69970;SDS011;57301;50.328;8.542;2024-03-02T03:34:06;18.73;;;9.05;;
69970;SDS011;57301;50.328;8.542;2024-03-02T03:36:33;19.05;;;9.27;;
69970;SDS011;57301;50.328;8.542;2024-03-02T03:38:59;19.35;;;10.45;;
69970;SDS011;57301;50.328;8.542;2024-03-02T03:41:28;23.98;;;10.85;;
69970;SDS011;57301;50.328;8.542;2024-03-02T03:43:54;19.10;;;9.97;;
69970;SDS011;57301;50.328;8.542;2024-03-02T03:46:21;19.40;;;9.85;;
69970;SDS011;57301;50.328;8.542;2024-03-02T03:48:48;24.35;;;10.82;;
69970;SDS011;57301;50.328;8.542;2024-03-02T03:51:14;19.20;;;9.13;;
69970;SDS011;57301;50.328;8.542;2024-03-02T03:53:41;19.73;;;10.48;;
69970;SDS011;57301;50.328;8.542;2024-03-02T03:56:08;23.00;;;10.17;;
69970;SDS011;57301;50.328;8.542;2024-03-02T03:58:34;22.48;;;10.52;;
69970;SDS011;57301;50.328;8.542;2024-03-02T04:01:00;22.33;;;10.90;;
69970;SDS011;57301;50.328;8.542;2024-03-02T04:03:27;22.85;;;11.00;;
69970;SDS011;57301;50.328;8.542;2024-03-02T04:05:54;29.10;;;11.52;;
69970;SDS011;57301;50.328;8.542;2024-03-02T04:08:20;25.33;;;12.23;;
69970;SDS011;57301;50.328;8.542;2024-03-02T04:10:47;22.63;;;10.98;;
69970;SDS011;57301;50.328;8.542;2024-03-02T04:13:13;26.80;;;11.90;;
69970;SDS011;57301;50.328;8.542;2024-03-02T04:15:40;27.50;;;13.63;;
69970;SDS011;57301;50.328;8.542;2024-03-02T04:18:09;26.13;;;12.45;;
69970;SDS011;57301;50.328;8.542;2024-03-02T04:20:35;27.53;;;12.30;;
69970;SDS011;57301;50.328;8.542;2024-03-02T04:23:02;28.08;;;12.85;;
69970;SDS011;57301;50.328;8.542;2024-03-02T04:25:29;25.10;;;12.23;;
69970;SDS011;57301;50.328;8.542;2024-03-02T04:27:55;24.48;;;11.93;;
69970;SDS011;57301;50.328;8.542;2024-03-02T04:30:22;29.48;;;12.52;;
69970;SDS011;57301;50.328;8.542;2024-03-02T04:32:49;23.47;;;11.60;;
69970;SDS011;57301;50.328;8.542;2024-03-02T04:35:15;31.58;;;13.10;;
69970;SDS011;57301;50.328;8.542;2024-03-02T04:37:43;30.58;;;13.38;;
69970;SDS011;57301;50.328;8.542;2024-03-02T04:40:10;25.20;;;11.70;;
69970;SDS011;57301;50.328;8.542;2024-03-02T04:42:36;27.45;;;13.00;;
69970;SDS011;57301;50.328;8.542;2024-03-02T04:45:03;24.73;;;13.03;;
69970;SDS011;57301;50.328;8.542;2024-03-02T04:47:30;27.65;;;12.02;;
69970;SDS011;57301;50.328;8.542;2024-03-02T04:49:57;22.30;;;11.00;;
69970;SDS011;57301;50.328;8.542;2024-03-02T04:52:23;26.00;;;11.50;;
69970;SDS011;57301;50.328;8.542;2024-03-02T04:54:50;21.60;;;10.88;;
69970;SDS011;57301;50.328;8.542;2024-03-02T04:57:35;21.63;;;10.60;;
69970;SDS011;57301;50.328;8.542;2024-03-02T05:00:01;20.02;;;9.95;;
69970;SDS011;57301;50.328;8.542;2024-03-02T05:02:33;19.52;;;10.00;;
69970;SDS011;57301;50.328;8.542;2024-03-02T05:04:59;22.67;;;10.80;;
69970;SDS011;57301;50.328;8.542;2024-03-02T05:07:26;21.77;;;10.43;;
69970;SDS011;57301;50.328;8.542;2024-03-02T05:09:52;23.57;;;10.43;;
69970;SDS011;57301;50.328;8.542;2024-03-02T05:12:24;20.05;;;9.57;;
69970;SDS011;57301;50.328;8.542;2024-03-02T05:15:09;22.33;;;10.10;;
69970;SDS011;57301;50.328;8.542;2024-03-02T05:17:36;20.40;;;9.63;;
69970;SDS011;57301;50.328;8.542;2024-03-02T05:20:04;19.55;;;10.65;;
69970;SDS011;57301;50.328;8.542;2024-03-02T05:22:34;18.33;;;9.17;;
69970;SDS011;57301;50.328;8.542;2024-03-02T05:25:01;17.35;;;8.52;;
69970;SDS011;57301;50.328;8.542;2024-03-02T05:27:29;21.15;;;8.82;;
69970;SDS011;57301;50.328;8.542;2024-03-02T05:29:56;18.88;;;9.60;;
69970;SDS011;57301;50.328;8.542;2024-03-02T05:32:23;26.50;;;10.93;;
69970;SDS011;57301;50.328;8.542;2024-03-02T05:34:50;23.83;;;12.17;;
69970;SDS011;57301;50.328;8.542;2024-03-02T05:37:17;22.95;;;11.48;;
69970;SDS011;57301;50.328;8.542;2024-03-02T05:39:44;19.17;;;10.18;;
69970;SDS011;57301;50.328;8.542;2024-03-02T05:42:11;17.70;;;9.60;;
69970;SDS011;57301;50.328;8.542;2024-03-02T05:44:38;18.83;;;9.48;;
69970;SDS011;57301;50.328;8.542;2024-03-02T05:47:04;21.43;;;10.17;;
69970;SDS011;57301;50.328;8.542;2024-03-02T05:49:32;19.48;;;9.88;;
69970;SDS011;57301;50.328;8.542;2024-03-02T05:51:59;18.17;;;9.93;;
69970;SDS011;57301;50.328;8.542;2024-03-02T05:54:26;18.88;;;9.60;;
69970;SDS011;57301;50.328;8.542;2024-03-02T05:56:52;19.25;;;9.70;;
69970;SDS011;57301;50.328;8.542;2024-03-02T05:59:19;22.63;;;10.73;;
69970;SDS011;57301;50.328;8.542;2024-03-02T06:01:46;21.75;;;10.38;;
69970;SDS011;57301;50.328;8.542;2024-03-02T06:04:13;21.40;;;10.23;;
69970;SDS011;57301;50.328;8.542;2024-03-02T06:06:40;20.73;;;10.63;;
69970;SDS011;57301;50.328;8.542;2024-03-02T06:09:07;25.42;;;12.00;;
69970;SDS011;57301;50.328;8.542;2024-03-02T06:11:34;23.90;;;11.00;;
69970;SDS011;57301;50.328;8.542;2024-03-02T06:14:08;24.92;;;11.80;;
69970;SDS011;57301;50.328;8.542;2024-03-02T06:16:35;24.50;;;11.68;;
69970;SDS011;57301;50.328;8.542;2024-03-02T06:19:01;23.88;;;11.30;;
69970;SDS011;57301;50.328;8.542;2024-03-02T06:21:29;25.42;;;11.73;;
69970;SDS011;57301;50.328;8.542;2024-03-02T06:23:56;23.93;;;11.07;;
69970;SDS011;57301;50.328;8.542;2024-03-02T06:26:23;19.60;;;9.75;;
69970;SDS011;57301;50.328;8.542;2024-03-02T06:28:51;22.48;;;10.60;;
69970;SDS011;57301;50.328;8.542;2024-03-02T06:31:18;20.02;;;9.65;;
69970;SDS011;57301;50.328;8.542;2024-03-02T06:33:45;21.92;;;10.65;;
69970;SDS011;57301;50.328;8.542;2024-03-02T06:36:12;25.53;;;12.43;;
69970;SDS011;57301;50.328;8.542;2024-03-02T06:38:38;24.15;;;11.02;;
69970;SDS011;57301;50.328;8.542;2024-03-02T06:41:08;23.58;;;11.32;;
69970;SDS011;57301;50.328;8.542;2024-03-02T06:43:35;24.45;;;10.88;;
69970;SDS011;57301;50.328;8.542;2024-03-02T06:46:02;27.30;;;12.13;;
69970;SDS011;57301;50.328;8.542;2024-03-02T06:48:29;28.53;;;12.40;;
69970;SDS011;57301;50.328;8.542;2024-03-02T06:50:56;27.48;;;12.55;;
69970;SDS011;57301;50.328;8.542;2024-03-02T06:53:24;27.73;;;13.18;;
69970;SDS011;57301;50.328;8.542;2024-03-02T06:55:51;26.25;;;12.55;;
69970;SDS011;57301;50.328;8.542;2024-03-02T06:58:20;31.70;;;13.68;;
69970;SDS011;57301;50.328;8.542;2024-03-02T07:00:46;29.20;;;12.40;;
69970;SDS011;57301;50.328;8.542;2024-03-02T07:03:14;23.35;;;11.68;;
69970;SDS011;57301;50.328;8.542;2024-03-02T07:05:41;25.20;;;12.80;;
69970;SDS011;57301;50.328;8.542;2024-03-02T07:08:08;34.20;;;14.77;;
69970;SDS011;57301;50.328;8.542;2024-03-02T07:10:34;31.08;;;13.32;;
69970;SDS011;57301;50.328;8.542;2024-03-02T07:13:01;31.43;;;14.37;;
69970;SDS011;57301;50.328;8.542;2024-03-02T07:15:28;32.20;;;14.88;;
69970;SDS011;57301;50.328;8.542;2024-03-02T07:17:54;30.05;;;13.93;;
69970;SDS011;57301;50.328;8.542;2024-03-02T07:20:21;32.78;;;14.55;;
69970;SDS011;57301;50.328;8.542;2024-03-02T07:22:48;30.88;;;14.77;;
69970;SDS011;57301;50.328;8.542;2024-03-02T07:25:14;34.47;;;15.03;;
69970;SDS011;57301;50.328;8.542;2024-03-02T07:27:44;32.90;;;15.02;;
69970;SDS011;57301;50.328;8.542;2024-03-02T07:30:13;29.55;;;14.55;;
69970;SDS011;57301;50.328;8.542;2024-03-02T07:32:42;32.28;;;14.88;;
69970;SDS011;57301;50.328;8.542;2024-03-02T07:35:12;31.33;;;14.27;;
69970;SDS011;57301;50.328;8.542;2024-03-02T07:37:41;27.87;;;13.80;;
69970;SDS011;57301;50.328;8.542;2024-03-02T07:40:08;24.88;;;13.05;;
69970;SDS011;57301;50.328;8.542;2024-03-02T07:42:39;24.58;;;13.18;;
69970;SDS011;57301;50.328;8.542;2024-03-02T07:45:07;25.20;;;12.80;;
69970;SDS011;57301;50.328;8.542;2024-03-02T07:47:34;21.58;;;11.93;;
69970;SDS011;57301;50.328;8.542;2024-03-02T07:50:02;19.60;;;10.80;;
69970;SDS011;57301;50.328;8.542;2024-03-02T07:52:29;25.08;;;14.00;;
69970;SDS011;57301;50.328;8.542;2024-03-02T07:54:55;27.17;;;14.73;;
69970;SDS011;57301;50.328;8.542;2024-03-02T07:57:22;21.60;;;12.07;;
69970;SDS011;57301;50.328;8.542;2024-03-02T07:59:49;21.17;;;11.73;;
69970;SDS011;57301;50.328;8.542;2024-03-02T08:02:15;17.83;;;10.53;;
69970;SDS011;57301;50.328;8.542;2024-03-02T08:04:42;16.98;;;10.25;;
69970;SDS011;57301;50.328;8.542;2024-03-02T08:07:09;17.80;;;10.55;;
69970;SDS011;57301;50.328;8.542;2024-03-02T08:09:35;15.75;;;9.55;;
69970;SDS011;57301;50.328;8.542;2024-03-02T08:12:02;15.10;;;9.52;;
69970;SDS011;57301;50.328;8.542;2024-03-02T08:14:29;15.80;;;9.83;;
69970;SDS011;57301;50.328;8.542;2024-03-02T08:16:55;17.35;;;10.43;;
69970;SDS011;57301;50.328;8.542;2024-03-02T08:19:22;16.05;;;10.02;;
69970;SDS011;57301;50.328;8.542;2024-03-02T08:21:49;15.95;;;10.75;;
69970;SDS011;57301;50.328;8.542;2024-03-02T08:24:16;18.00;;;10.13;;
69970;SDS011;57301;50.328;8.542;2024-03-02T08:26:45;14.67;;;9.47;;
69970;SDS011;57301;50.328;8.542;2024-03-02T08:29:11;15.77;;;10.23;;
69970;SDS011;57301;50.328;8.542;2024-03-02T08:31:39;17.80;;;9.98;;
69970;SDS011;57301;50.328;8.542;2024-03-02T08:34:10;15.10;;;9.27;;
69970;SDS011;57301;50.328;8.542;2024-03-02T08:36:37;14.23;;;9.32;;
69970;SDS011;57301;50.328;8.542;2024-03-02T08:39:04;15.40;;;9.10;;
69970;SDS011;57301;50.328;8.542;2024-03-02T08:41:33;13.82;;;9.00;;
69970;SDS011;57301;50.328;8.542;2024-03-02T08:44:00;15.50;;;9.30;;
69970;SDS011;57301;50.328;8.542;2024-03-02T08:46:26;20.30;;;11.73;;
69970;SDS011;57301;50.328;8.542;2024-03-02T08:48:53;19.30;;;11.80;;
69970;SDS011;57301;50.328;8.542;2024-03-02T08:51:20;16.23;;;9.60;;
69970;SDS011;57301;50.328;8.542;2024-03-02T08:53:46;17.63;;;9.73;;
69970;SDS011;57301;50.328;8.542;2024-03-02T08:56:13;15.48;;;9.38;;
69970;SDS011;57301;50.328;8.542;2024-03-02T08:58:42;15.05;;;8.77;;
69970;SDS011;57301;50.328;8.542;2024-03-02T09:01:10;15.85;;;8.80;;
69970;SDS011;57301;50.328;8.542;2024-03-02T09:03:37;13.23;;;8.60;;
69970;SDS011;57301;50.328;8.542;2024-03-02T09:06:04;14.50;;;8.45;;
69970;SDS011;57301;50.328;8.542;2024-03-02T09:08:30;13.85;;;8.27;;
69970;SDS011;57301;50.328;8.542;2024-03-02T09:10:57;13.85;;;8.07;;
69970;SDS011;57301;50.328;8.542;2024-03-02T09:13:24;12.73;;;7.85;;
69970;SDS011;57301;50.328;8.542;2024-03-02T09:15:50;12.60;;;7.80;;
69970;SDS011;57301;50.328;8.542;2024-03-02T09:18:17;13.50;;;7.97;;
69970;SDS011;57301;50.328;8.542;2024-03-02T09:20:44;11.73;;;7.25;;
69970;SDS011;57301;50.328;8.542;2024-03-02T09:23:12;11.32;;;6.90;;
69970;SDS011;57301;50.328;8.542;2024-03-02T09:25:38;10.98;;;7.38;;
69970;SDS011;57301;50.328;8.542;2024-03-02T09:28:05;11.03;;;6.93;;
69970;SDS011;57301;50.328;8.542;2024-03-02T09:30:33;12.30;;;7.13;;
69970;SDS011;57301;50.328;8.542;2024-03-02T09:32:59;9.30;;;6.60;;
69970;SDS011;57301;50.328;8.542;2024-03-02T09:35:29;12.02;;;6.60;;
69970;SDS011;57301;50.328;8.542;2024-03-02T09:37:55;10.00;;;6.28;;
69970;SDS011;57301;50.328;8.542;2024-03-02T09:40:22;9.73;;;5.97;;
69970;SDS011;57301;50.328;8.542;2024-03-02T09:42:49;10.45;;;6.47;;
69970;SDS011;57301;50.328;8.542;2024-03-02T09:45:21;8.77;;;5.50;;
69970;SDS011;57301;50.328;8.542;2024-03-02T09:47:50;9.18;;;6.00;;
69970;SDS011;57301;50.328;8.542;2024-03-02T09:50:16;9.00;;;6.18;;
69970;SDS011;57301;50.328;8.542;2024-03-02T09:52:43;9.00;;;5.87;;
69970;SDS011;57301;50.328;8.542;2024-03-02T09:55:11;8.98;;;5.95;;
69970;SDS011;57301;50.328;8.542;2024-03-02T09:57:38;8.27;;;5.57;;
69970;SDS011;57301;50.328;8.542;2024-03-02T10:00:07;10.88;;;5.97;;
69970;SDS011;57301;50.328;8.542;2024-03-02T10:02:34;8.05;;;5.70;;
69970;SDS011;57301;50.328;8.542;2024-03-02T10:05:00;8.20;;;5.83;;
69970;SDS011;57301;50.328;8.542;2024-03-02T10:07:30;9.63;;;6.38;;
69970;SDS011;57301;50.328;8.542;2024-03-02T10:09:56;9.73;;;6.47;;
69970;SDS011;57301;50.328;8.542;2024-03-02T10:12:23;9.65;;;6.28;;
69970;SDS011;57301;50.328;8.542;2024-03-02T10:14:50;9.52;;;6.45;;
69970;SDS011;57301;50.328;8.542;2024-03-02T10:17:30;9.37;;;6.00;;
69970;SDS011;57301;50.328;8.542;2024-03-02T10:19:58;11.32;;;6.57;;
69970;SDS011;57301;50.328;8.542;2024-03-02T10:22:24;9.00;;;5.45;;
69970;SDS011;57301;50.328;8.542;2024-03-02T10:24:52;7.35;;;4.68;;
69970;SDS011;57301;50.328;8.542;2024-03-02T10:27:26;7.93;;;5.00;;
69970;SDS011;57301;50.328;8.542;2024-03-02T10:29:53;8.03;;;4.80;;
69970;SDS011;57301;50.328;8.542;2024-03-02T10:32:21;8.52;;;5.28;;
69970;SDS011;57301;50.328;8.542;2024-03-02T10:34:49;10.00;;;5.88;;
69970;SDS011;57301;50.328;8.542;2024-03-02T10:37:16;8.80;;;5.13;;
69970;SDS011;57301;50.328;8.542;2024-03-02T10:39:45;9.95;;;5.65;;
69970;SDS011;57301;50.328;8.542;2024-03-02T10:42:13;9.77;;;5.63;;
69970;SDS011;57301;50.328;8.542;2024-03-02T10:44:40;10.07;;;5.50;;
69970;SDS011;57301;50.328;8.542;2024-03-02T10:47:08;8.05;;;5.63;;
69970;SDS011;57301;50.328;8.542;2024-03-02T10:49:35;10.52;;;6.13;;
69970;SDS011;57301;50.328;8.542;2024-03-02T10:52:04;9.65;;;6.10;;
69970;SDS011;57301;50.328;8.542;2024-03-02T10:54:31;8.37;;;5.57;;
69970;SDS011;57301;50.328;8.542;2024-03-02T10:57:03;8.40;;;5.15;;
69970;SDS011;57301;50.328;8.542;2024-03-02T10:59:32;7.50;;;4.50;;
69970;SDS011;57301;50.328;8.542;2024-03-02T11:02:01;7.90;;;4.80;;
69970;SDS011;57301;50.328;8.542;2024-03-02T11:04:31;6.55;;;4.70;;
69970;SDS011;57301;50.328;8.542;2024-03-02T11:07:05;7.67;;;4.20;;
69970;SDS011;57301;50.328;8.542;2024-03-02T11:09:35;5.72;;;3.67;;
69970;SDS011;57301;50.328;8.542;2024-03-02T11:12:27;7.00;;;4.10;;
69970;SDS011;57301;50.328;8.542;2024-03-02T11:14:55;6.57;;;3.55;;
69970;SDS011;57301;50.328;8.542;2024-03-02T11:17:22;6.72;;;4.07;;
69970;SDS011;57301;50.328;8.542;2024-03-02T11:19:50;7.30;;;4.37;;
69970;SDS011;57301;50.328;8.542;2024-03-02T11:22:20;7.28;;;4.15;;
69970;SDS011;57301;50.328;8.542;2024-03-02T11:24:51;5.90;;;3.95;;
69970;SDS011;57301;50.328;8.542;2024-03-02T11:30:48;6.65;;;4.05;;
69970;SDS011;57301;50.328;8.542;2024-03-02T11:33:05;6.13;;;4.07;;
69970;SDS011;57301;50.328;8.542;2024-03-02T11:35:41;6.85;;;3.95;;
69970;SDS011;57301;50.328;8.542;2024-03-02T11:38:09;5.53;;;3.90;;
69970;SDS011;57301;50.328;8.542;2024-03-02T11:40:36;6.85;;;4.20;;
69970;SDS011;57301;50.328;8.542;2024-03-02T11:43:06;7.32;;;4.20;;
69970;SDS011;57301;50.328;8.542;2024-03-02T11:45:35;8.38;;;4.10;;
69970;SDS011;57301;50.328;8.542;2024-03-02T11:48:06;9.50;;;4.10;;
69970;SDS011;57301;50.328;8.542;2024-03-02T11:53:04;7.88;;;4.53;;
69970;SDS011;57301;50.328;8.542;2024-03-02T11:55:35;6.57;;;4.15;;
69970;SDS011;57301;50.328;8.542;2024-03-02T11:58:05;6.72;;;4.35;;
69970;SDS011;57301;50.328;8.542;2024-03-02T12:00:33;6.37;;;4.30;;
69970;SDS011;57301;50.328;8.542;2024-03-02T12:03:00;6.03;;;4.40;;
69970;SDS011;57301;50.328;8.542;2024-03-02T12:05:27;5.30;;;3.38;;
69970;SDS011;57301;50.328;8.542;2024-03-02T12:07:55;6.88;;;4.07;;
69970;SDS011;57301;50.328;8.542;2024-03-02T12:10:24;5.35;;;3.80;;
69970;SDS011;57301;50.328;8.542;2024-03-02T12:12:57;7.20;;;3.40;;
69970;SDS011;57301;50.328;8.542;2024-03-02T12:15:28;5.32;;;3.38;;
69970;SDS011;57301;50.328;8.542;2024-03-02T12:17:57;5.38;;;3.80;;
69970;SDS011;57301;50.328;8.542;2024-03-02T12:20:26;6.20;;;4.50;;
69970;SDS011;57301;50.328;8.542;2024-03-02T12:22:56;7.32;;;4.32;;
69970;SDS011;57301;50.328;8.542;2024-03-02T12:25:25;5.37;;;4.10;;
69970;SDS011;57301;50.328;8.542;2024-03-02T12:27:56;6.82;;;4.30;;
69970;SDS011;57301;50.328;8.542;2024-03-02T12:30:26;4.72;;;3.35;;
69970;SDS011;57301;50.328;8.542;2024-03-02T12:32:58;4.78;;;2.90;;
69970;SDS011;57301;50.328;8.542;2024-03-02T12:35:25;6.30;;;3.10;;
69970;SDS011;57301;50.328;8.542;2024-03-02T12:37:52;4.83;;;2.90;;
69970;SDS011;57301;50.328;8.542;2024-03-02T12:40:23;4.38;;;2.65;;
69970;SDS011;57301;50.328;8.542;2024-03-02T12:42:50;4.28;;;2.40;;
69970;SDS011;57301;50.328;8.542;2024-03-02T12:45:17;4.85;;;2.83;;
69970;SDS011;57301;50.328;8.542;2024-03-02T12:47:53;5.13;;;3.15;;
69970;SDS011;57301;50.328;8.542;2024-03-02T12:50:20;4.30;;;2.80;;
69970;SDS011;57301;50.328;8.542;2024-03-02T12:55:18;4.13;;;2.53;;
69970;SDS011;57301;50.328;8.542;2024-03-02T12:57:46;3.53;;;2.40;;
69970;SDS011;57301;50.328;8.542;2024-03-02T13:00:15;4.32;;;2.20;;
69970;SDS011;57301;50.328;8.542;2024-03-02T13:02:45;4.13;;;2.13;;
69970;SDS011;57301;50.328;8.542;2024-03-02T13:05:12;4.43;;;2.67;;
69970;SDS011;57301;50.328;8.542;2024-03-02T13:07:39;4.88;;;3.13;;
69970;SDS011;57301;50.328;8.542;2024-03-02T13:10:07;5.70;;;3.13;;
69970;SDS011;57301;50.328;8.542;2024-03-02T13:12:36;5.28;;;3.10;;
69970;SDS011;57301;50.328;8.542;2024-03-02T13:15:04;4.90;;;3.37;;
69970;SDS011;57301;50.328;8.542;2024-03-02T13:17:34;6.10;;;4.07;;
69970;SDS011;57301;50.328;8.542;2024-03-02T13:20:04;6.05;;;3.53;;
69970;SDS011;57301;50.328;8.542;2024-03-02T13:22:34;5.22;;;3.08;;
69970;SDS011;57301;50.328;8.542;2024-03-02T13:25:02;5.60;;;3.70;;
69970;SDS011;57301;50.328;8.542;2024-03-02T13:27:31;5.53;;;3.47;;
69970;SDS011;57301;50.328;8.542;2024-03-02T13:29:59;5.45;;;3.65;;
69970;SDS011;57301;50.328;8.542;2024-03-02T13:32:26;6.30;;;3.42;;
69970;SDS011;57301;50.328;8.542;2024-03-02T13:34:52;5.60;;;3.72;;
69970;SDS011;57301;50.328;8.542;2024-03-02T13:37:20;8.60;;;4.55;;
69970;SDS011;57301;50.328;8.542;2024-03-02T13:39:47;6.67;;;4.70;;
69970;SDS011;57301;50.328;8.542;2024-03-02T13:42:34;6.47;;;4.43;;
69970;SDS011;57301;50.328;8.542;2024-03-02T13:45:01;5.72;;;4.38;;
69970;SDS011;57301;50.328;8.542;2024-03-02T13:47:28;5.88;;;4.03;;
69970;SDS011;57301;50.328;8.542;2024-03-02T13:49:55;6.70;;;4.32;;
69970;SDS011;57301;50.328;8.542;2024-03-02T13:52:21;5.33;;;3.90;;
69970;SDS011;57301;50.328;8.542;2024-03-02T13:54:48;5.75;;;3.65;;
69970;SDS011;57301;50.328;8.542;2024-03-02T13:57:15;6.43;;;3.97;;
69970;SDS011;57301;50.328;8.542;2024-03-02T13:59:43;5.43;;;3.92;;
69970;SDS011;57301;50.328;8.542;2024-03-02T14:02:10;5.35;;;3.67;;
69970;SDS011;57301;50.328;8.542;2024-03-02T14:04:38;6.70;;;4.40;;
69970;SDS011;57301;50.328;8.542;2024-03-02T14:07:08;6.35;;;4.18;;
69970;SDS011;57301;50.328;8.542;2024-03-02T14:09:35;6.60;;;4.07;;
69970;SDS011;57301;50.328;8.542;2024-03-02T14:12:03;4.88;;;4.00;;
69970;SDS011;57301;50.328;8.542;2024-03-02T14:14:31;6.00;;;4.10;;
69970;SDS011;57301;50.328;8.542;2024-03-02T14:16:58;6.40;;;4.27;;
69970;SDS011;57301;50.328;8.542;2024-03-02T14:19:29;6.40;;;3.92;;
69970;SDS011;57301;50.328;8.542;2024-03-02T14:21:56;7.35;;;4.22;;
69970;SDS011;57301;50.328;8.542;2024-03-02T14:24:23;6.63;;;3.90;;
69970;SDS011;57301;50.328;8.542;2024-03-02T14:26:52;5.20;;;3.22;;
69970;SDS011;57301;50.328;8.542;2024-03-02T14:29:28;5.43;;;3.60;;
69970;SDS011;57301;50.328;8.542;2024-03-02T14:31:55;4.93;;;3.38;;
69970;SDS011;57301;50.328;8.542;2024-03-02T14:34:21;4.68;;;3.30;;
69970;SDS011;57301;50.328;8.542;2024-03-02T14:36:48;4.82;;;3.20;;
69970;SDS011;57301;50.328;8.542;2024-03-02T14:39:15;4.78;;;3.40;;
69970;SDS011;57301;50.328;8.542;2024-03-02T14:41:41;4.93;;;3.17;;
69970;SDS011;57301;50.328;8.542;2024-03-02T14:44:08;5.07;;;3.20;;
69970;SDS011;57301;50.328;8.542;2024-03-02T14:46:35;5.47;;;3.35;;
69970;SDS011;57301;50.328;8.542;2024-03-02T14:49:01;5.47;;;3.35;;
69970;SDS011;57301;50.328;8.542;2024-03-02T14:51:28;6.18;;;3.35;;
69970;SDS011;57301;50.328;8.542;2024-03-02T14:53:56;5.60;;;3.77;;
69970;SDS011;57301;50.328;8.542;2024-03-02T14:56:23;6.55;;;3.55;;